Time;durP1;ratioP1;P1;durP2;ratioP2;P2;SDS_P1;SDS_P2;PMS_P1;PMS_P2;Temp;Humidity;BMP_temperature;BMP_pressure;BME280_temperature;BME280_humidity;BME280_pressure;Samples;Min_cycle;Max_cycle;Signal;HPM_P1;HPM_P2
2022/12/14 00:02:05;;;;;;;27.95;13.25;;;;;;;-3.80;100.00;100470.75;5053361;28;20076;-48
2022/12/14 00:04:33;;;;;;;24.23;12.25;;;;;;;-3.78;100.00;100463.88;5053119;28;20057;-50
2022/12/14 00:07:01;;;;;;;26.75;13.23;;;;;;;-3.75;100.00;100466.41;5053346;28;20037;-48
2022/12/14 00:09:31;;;;;;;25.45;13.45;;;;;;;-3.76;100.00;100462.97;5053104;28;20499;-49
2022/12/14 00:11:59;;;;;;;25.15;13.20;;;;;;;-3.75;100.00;100456.13;5053108;28;20068;-48
2022/12/14 00:14:27;;;;;;;26.17;13.60;;;;;;;-3.77;100.00;100456.13;5053138;28;20049;-50
2022/12/14 00:16:55;;;;;;;25.05;13.18;;;;;;;-3.75;100.00;100458.69;5052727;28;20075;-52
2022/12/14 00:19:23;;;;;;;24.25;12.00;;;;;;;-3.72;100.00;100458.66;5052047;28;20049;-48
2022/12/14 00:21:52;;;;;;;24.13;13.82;;;;;;;-3.72;100.00;100448.38;5052900;28;20057;-48
2022/12/14 00:24:20;;;;;;;26.52;12.98;;;;;;;-3.75;100.00;100450.97;5052834;28;20099;-52
2022/12/14 00:26:49;;;;;;;22.65;11.75;;;;;;;-3.79;100.00;100442.47;5052897;28;20052;-52
2022/12/14 00:29:17;;;;;;;24.23;12.90;;;;;;;-3.72;100.00;100439.81;5053096;28;20402;-47
2022/12/14 00:31:46;;;;;;;25.23;13.18;;;;;;;-3.71;100.00;100438.94;5052242;28;20507;-49
2022/12/14 00:34:15;;;;;;;24.83;12.43;;;;;;;-3.68;100.00;100446.59;5052368;28;20060;-48
2022/12/14 00:36:44;;;;;;;24.88;13.77;;;;;;;-3.71;100.00;100439.78;5052159;28;20075;-50
2022/12/14 00:39:12;;;;;;;23.77;12.82;;;;;;;-3.71;100.00;100436.38;5051982;28;20057;-47
2022/12/14 00:41:40;;;;;;;21.75;11.63;;;;;;;-3.69;100.00;100435.50;5051944;28;20094;-49
2022/12/14 00:44:09;;;;;;;25.55;13.35;;;;;;;-3.73;100.00;100431.25;5050393;28;20538;-51
2022/12/14 00:46:37;;;;;;;22.10;12.32;;;;;;;-3.74;100.00;100435.56;5051888;28;20106;-47
2022/12/14 00:49:05;;;;;;;27.90;13.43;;;;;;;-3.68;100.00;100438.91;5051695;28;20051;-48
2022/12/14 00:51:36;;;;;;;24.63;13.35;;;;;;;-3.72;100.00;100427.81;5052114;28;20065;-47
2022/12/14 00:54:05;;;;;;;24.52;12.50;;;;;;;-3.79;100.00;100436.47;5051703;28;20053;-49
2022/12/14 00:56:34;;;;;;;24.08;13.02;;;;;;;-3.77;100.00;100429.59;5051600;28;20124;-49
2022/12/14 00:59:03;;;;;;;25.27;12.32;;;;;;;-3.68;100.00;100428.63;5051801;28;20506;-55
2022/12/14 01:01:32;;;;;;;23.15;12.35;;;;;;;-3.67;100.00;100420.88;5050969;28;20064;-54
2022/12/14 01:06:43;;;;;;;23.02;12.10;;;;;;;-3.69;100.00;100417.50;5048187;28;20055;-52
2022/12/14 01:09:12;;;;;;;23.80;11.77;;;;;;;-3.71;100.00;100414.06;5047273;28;20041;-52
2022/12/14 01:11:40;;;;;;;20.58;11.35;;;;;;;-3.72;100.00;100407.25;5051674;28;20119;-55
2022/12/14 01:14:08;;;;;;;22.08;11.77;;;;;;;-3.72;100.00;100406.38;5049730;28;20114;-53
2022/12/14 01:16:39;;;;;;;22.30;11.70;;;;;;;-3.71;100.00;100396.09;5048635;28;20136;-53
2022/12/14 01:19:07;;;;;;;21.50;11.50;;;;;;;-3.74;100.00;100388.41;5050313;28;20041;-54
2022/12/14 01:21:36;;;;;;;23.83;12.68;;;;;;;-3.73;100.00;100395.28;5048857;28;20057;-55
2022/12/14 01:24:05;;;;;;;21.77;10.93;;;;;;;-3.74;100.00;100393.56;5049113;28;20080;-56
2022/12/14 01:26:37;;;;;;;20.63;11.23;;;;;;;-3.74;100.00;100389.28;5050134;28;20061;-56
2022/12/14 01:29:06;;;;;;;;;;;;;;;-3.70;100.00;100396.94;5053673;28;20037;-56
2022/12/14 01:31:36;;;;;;;22.08;11.05;;;;;;;-3.71;100.00;100387.53;5049541;28;20351;-55
2022/12/14 01:34:07;;;;;;;23.98;12.38;;;;;;;-3.71;100.00;100390.09;5051001;28;20519;-54
2022/12/14 01:36:36;;;;;;;26.98;12.80;;;;;;;-3.69;100.00;100389.22;5052765;28;20081;-55
2022/12/14 01:39:08;;;;;;;24.25;11.77;;;;;;;-3.73;100.00;100385.00;5012112;28;1151854;-55
2022/12/14 01:41:38;;;;;;;20.58;10.98;;;;;;;-3.68;100.00;100390.94;5053842;28;20059;-53
2022/12/14 01:44:47;;;;;;;19.42;10.95;;;;;;;-3.71;100.00;100390.09;5054687;28;20115;-55
2022/12/14 01:47:21;;;;;;;20.63;10.98;;;;;;;-3.70;100.00;100384.94;5054834;28;20053;-55
2022/12/14 01:49:56;;;;;;;27.80;12.93;;;;;;;-3.70;100.00;100384.09;5055889;28;20041;-54
2022/12/14 01:52:30;;;;;;;24.55;11.88;;;;;;;-3.70;100.00;100379.81;5054405;28;20458;-55
2022/12/14 01:55:02;;;;;;;20.25;11.35;;;;;;;-3.70;100.00;100377.22;5053894;28;20151;-54
2022/12/14 01:57:35;;;;;;;20.35;10.50;;;;;;;-3.68;100.00;100382.34;5055912;28;20037;-54
2022/12/14 02:00:05;;;;;;;20.60;10.40;;;;;;;-3.69;100.00;100376.38;5054983;28;20052;-55
2022/12/14 02:02:35;;;;;;;20.50;10.98;;;;;;;-3.70;100.00;100374.66;5052283;28;20041;-54
2022/12/14 02:05:08;;;;;;;21.33;11.02;;;;;;;-3.77;100.00;100373.88;5052847;28;20063;-55
2022/12/14 02:07:39;;;;;;;21.95;11.38;;;;;;;-3.76;100.00;100372.19;5052924;28;20080;-54
2022/12/14 02:10:08;;;;;;;20.30;10.38;;;;;;;-3.73;100.00;100361.84;5055508;28;20045;-54
2022/12/14 02:12:41;;;;;;;19.75;9.75;;;;;;;-3.69;100.00;100366.09;5055595;28;20049;-54
2022/12/14 02:15:18;;;;;;;17.92;10.00;;;;;;;-3.74;100.00;100365.28;5055694;28;20049;-54
2022/12/14 02:17:51;;;;;;;19.00;9.80;;;;;;;-3.69;100.00;100363.50;5051554;28;20049;-55
2022/12/14 02:20:28;;;;;;;17.38;9.00;;;;;;;-3.69;100.00;100358.38;5053069;28;20107;-52
2022/12/14 02:23:32;;;;;;;17.98;9.65;;;;;;;-3.65;100.00;100364.34;5054580;28;20502;-54
2022/12/14 02:26:25;;;;;;;20.30;10.13;;;;;;;-3.69;100.00;100363.50;5035647;28;20123;-55
2022/12/14 02:29:43;;;;;;;18.27;9.57;;;;;;;-3.61;100.00;100353.97;5055292;28;20064;-55
2022/12/14 02:32:26;;;;;;;22.02;10.13;;;;;;;-3.62;100.00;100341.97;5052214;28;20045;-54
2022/12/14 02:34:59;;;;;;;20.90;9.98;;;;;;;-3.70;100.00;100356.66;5053129;28;20057;-53
2022/12/14 02:37:36;;;;;;;19.13;9.93;;;;;;;-3.80;100.00;100343.09;5053028;28;20437;-53
2022/12/14 02:40:23;;;;;;;20.92;10.80;;;;;;;-3.79;100.00;100341.38;5053496;28;20051;-55
2022/12/14 02:43:03;;;;;;;18.75;10.32;;;;;;;-3.77;100.00;100337.91;5052636;28;20415;-55
2022/12/14 02:45:39;;;;;;;22.17;10.32;;;;;;;-3.80;100.00;100342.25;5053479;28;20053;-55
2022/12/14 02:48:13;;;;;;;19.98;9.75;;;;;;;-3.80;100.00;100329.41;5055097;28;20071;-55
2022/12/14 02:50:46;;;;;;;18.58;9.25;;;;;;;-3.77;100.00;100331.94;5054721;28;20041;-54
2022/12/14 02:53:28;;;;;;;18.38;9.10;;;;;;;-3.80;100.00;100348.25;5052950;28;20099;-53
2022/12/14 02:56:11;;;;;;;18.73;9.50;;;;;;;-3.82;100.00;100324.25;5052701;28;20503;-52
2022/12/14 02:58:43;;;;;;;19.50;10.13;;;;;;;-3.88;100.00;100328.66;5053340;28;20057;-46
2022/12/14 03:01:15;;;;;;;18.07;9.33;;;;;;;-3.84;100.00;100325.19;5054706;28;20049;-46
2022/12/14 03:03:44;;;;;;;20.35;10.55;;;;;;;-3.88;100.00;100320.97;5054235;28;20392;-49
2022/12/14 03:06:15;;;;;;;17.63;8.90;;;;;;;-3.88;100.00;100323.53;5054337;28;20044;-49
2022/12/14 03:08:46;;;;;;;19.20;9.82;;;;;;;-3.88;100.00;100318.38;5054540;28;20127;-47
2022/12/14 03:11:20;;;;;;;19.35;9.75;;;;;;;-3.94;100.00;100315.03;5053695;28;20037;-50
2022/12/14 03:13:53;;;;;;;19.70;9.48;;;;;;;-3.88;100.00;100321.78;5053718;28;20083;-49
2022/12/14 03:16:27;;;;;;;18.48;9.05;;;;;;;-3.90;100.00;100318.38;5054076;28;20049;-48
2022/12/14 03:18:59;;;;;;;16.13;8.43;;;;;;;-3.92;100.00;100312.44;5054083;28;20059;-46
2022/12/14 03:21:32;;;;;;;17.65;8.70;;;;;;;-3.87;100.00;100320.06;5054331;28;20057;-47
2022/12/14 03:24:05;;;;;;;17.52;8.45;;;;;;;-3.88;100.00;100313.25;5053835;28;20065;-48
2022/12/14 03:26:39;;;;;;;17.50;8.98;;;;;;;-3.92;100.00;100303.00;5054174;28;20132;-49
2022/12/14 03:29:20;;;;;;;18.05;8.05;;;;;;;-3.92;100.00;100302.16;5052884;28;20056;-48
2022/12/14 03:31:55;;;;;;;20.50;9.48;;;;;;;-3.93;100.00;100301.31;5048944;28;20053;-46
2022/12/14 03:34:31;;;;;;;18.23;8.55;;;;;;;-3.96;100.00;100296.19;5050714;28;20145;-50
2022/12/14 03:37:09;;;;;;;17.80;8.65;;;;;;;-3.94;100.00;100296.16;5053782;28;20063;-48
2022/12/14 03:39:41;;;;;;;18.27;9.52;;;;;;;-3.96;100.00;100290.22;5053688;28;20110;-47
2022/12/14 03:42:19;;;;;;;20.73;10.40;;;;;;;-3.97;100.00;100294.50;5053837;28;20045;-51
2022/12/14 03:44:55;;;;;;;17.55;9.15;;;;;;;-3.97;100.00;100288.50;5053539;28;20045;-48
2022/12/14 03:47:45;;;;;;;17.33;8.07;;;;;;;-3.95;100.00;100289.34;5053862;28;20091;-48
2022/12/14 03:50:18;;;;;;;17.23;9.43;;;;;;;-3.96;100.00;100283.34;5053832;28;20056;-47
2022/12/14 03:52:54;;;;;;;17.35;8.82;;;;;;;-3.95;100.00;100277.34;5053064;28;20103;-50
2022/12/14 03:55:29;;;;;;;19.92;9.07;;;;;;;-3.98;100.00;100267.13;5051194;28;20110;-47
2022/12/14 03:58:25;;;;;;;18.90;9.75;;;;;;;-3.94;100.00;100265.34;5050835;28;20052;-47
2022/12/14 04:01:00;;;;;;;16.13;8.57;;;;;;;-4.00;100.00;100257.75;5053179;28;20107;-46
2022/12/14 04:03:42;;;;;;;18.48;9.32;;;;;;;-4.06;100.00;100250.97;5053103;28;20052;-46
2022/12/14 04:06:21;;;;;;;18.80;9.30;;;;;;;-4.07;100.00;100256.97;5053364;28;20080;-47
2022/12/14 04:09:23;;;;;;;18.13;9.10;;;;;;;-4.08;100.00;100245.88;5052067;28;20431;-50
2022/12/14 04:20:47;;;;;;;19.50;9.07;;;;;;;-4.21;100.00;100243.47;5053062;28;20437;-50
2022/12/14 04:26:03;;;;;;;17.17;8.32;;;;;;;-4.22;100.00;100250.34;5053169;28;20102;-50
2022/12/14 04:26:43;;;;;;;16.47;8.47;;;;;;;-4.19;100.00;100236.59;5052990;28;20137;-55
2022/12/14 04:32:09;;;;;;;17.10;8.02;;;;;;;-4.23;100.00;100240.09;5049759;28;20091;-53
2022/12/14 04:34:40;;;;;;;16.65;7.90;;;;;;;-4.25;100.00;100235.81;5049709;28;20061;-55
2022/12/14 04:37:17;;;;;;;15.25;7.80;;;;;;;-4.27;100.00;100234.13;5050705;28;20053;-54
2022/12/14 04:39:50;;;;;;;16.75;8.15;;;;;;;-4.29;100.00;100225.63;5052219;28;20115;-51
2022/12/14 04:42:22;;;;;;;17.77;8.27;;;;;;;-4.27;100.00;100229.88;5052879;28;20048;-54
2022/12/14 04:44:54;;;;;;;16.20;8.32;;;;;;;-4.28;100.00;100220.44;5052864;28;20526;-50
2022/12/14 04:47:28;;;;;;;15.23;7.45;;;;;;;-4.30;100.00;100218.78;5051406;28;20492;-54
2022/12/14 04:50:03;;;;;;;15.65;8.05;;;;;;;-4.28;100.00;100224.72;5050575;28;20041;-54
2022/12/14 04:52:38;;;;;;;13.85;7.28;;;;;;;-4.30;100.00;100221.34;5050659;28;20492;-55
2022/12/14 04:55:12;;;;;;;17.70;7.53;;;;;;;-4.30;100.00;100216.19;5050907;28;20549;-54
2022/12/14 04:57:45;;;;;;;14.68;6.40;;;;;;;-4.33;100.00;100216.25;5052394;28;20044;-51
2022/12/14 05:00:14;;;;;;;15.82;8.27;;;;;;;-4.34;100.00;100211.97;5052947;28;20387;-54
2022/12/14 05:02:59;;;;;;;15.57;7.40;;;;;;;-4.35;100.00;100211.16;5049690;28;20133;-55
2022/12/14 05:05:36;;;;;;;16.02;8.93;;;;;;;-4.32;100.00;100205.09;5050533;28;20059;-54
2022/12/14 05:08:10;;;;;;;16.75;7.80;;;;;;;-4.31;100.00;100209.38;5049009;28;20049;-54
2022/12/14 05:10:42;;;;;;;16.73;7.65;;;;;;;-4.36;100.00;100206.00;5052248;28;20056;-54
2022/12/14 05:13:14;;;;;;;;;;;;;;;-4.41;100.00;100206.06;5052909;28;20041;-52
2022/12/14 05:15:44;;;;;;;14.70;8.20;;;;;;;-4.44;100.00;100201.84;5052198;28;20375;-55
2022/12/14 05:18:13;;;;;;;14.70;7.30;;;;;;;-4.44;100.00;100196.69;5049125;28;20047;-54
2022/12/14 05:20:41;;;;;;;15.75;7.80;;;;;;;-4.44;100.00;100195.84;5051561;28;20037;-54
2022/12/14 05:23:10;;;;;;;16.73;8.13;;;;;;;-4.47;100.00;100189.03;5051144;28;20114;-53
2022/12/14 05:25:38;;;;;;;17.25;7.85;;;;;;;-4.47;100.00;100185.59;5051928;28;20057;-51
2022/12/14 05:28:07;;;;;;;16.63;7.35;;;;;;;-4.43;100.00;100185.56;5052221;28;20450;-54
2022/12/14 05:30:35;;;;;;;16.55;8.13;;;;;;;-4.49;100.00;100185.63;5051209;28;20052;-54
2022/12/14 05:33:17;;;;;;;14.45;7.97;;;;;;;-4.52;100.00;100182.28;5048955;28;20126;-52
2022/12/14 05:35:53;;;;;;;14.75;7.30;;;;;;;-4.52;100.00;100179.72;5051846;28;20492;-54
2022/12/14 05:38:35;;;;;;;16.98;7.70;;;;;;;-4.53;100.00;100178.00;5064974;28;20045;-48
2022/12/14 05:41:03;;;;;;;18.33;8.15;;;;;;;-4.53;100.00;100183.13;5049837;28;20045;-51
2022/12/14 05:43:31;;;;;;;16.27;7.35;;;;;;;-4.46;100.00;100182.19;5052094;28;20545;-48
2022/12/14 05:46:00;;;;;;;16.58;7.93;;;;;;;-4.47;100.00;100178.78;5052192;28;20472;-50
2022/12/14 05:48:29;;;;;;;14.40;7.28;;;;;;;-4.47;100.00;100185.59;5051912;28;20211;-48
2022/12/14 05:51:05;;;;;;;16.02;7.57;;;;;;;-4.49;100.00;100177.09;5051840;28;20087;-45
2022/12/14 05:53:33;;;;;;;16.75;7.50;;;;;;;-4.47;100.00;100180.47;5052125;28;20045;-47
2022/12/14 05:56:04;;;;;;;16.85;7.95;;;;;;;-4.46;100.00;100177.03;5051851;28;20049;-46
2022/12/14 05:58:32;;;;;;;15.68;7.32;;;;;;;-4.42;100.00;100174.44;5049483;28;20523;-46
2022/12/14 06:01:01;;;;;;;17.05;7.45;;;;;;;-4.42;100.00;100173.56;5047557;28;20135;-48
2022/12/14 06:03:29;;;;;;;16.50;7.50;;;;;;;-4.45;100.00;100173.63;5051790;28;20418;-50
2022/12/14 06:06:03;;;;;;;16.48;8.07;;;;;;;-4.46;100.00;100162.50;5051181;28;20071;-49
2022/12/14 06:08:39;;;;;;;16.10;7.20;;;;;;;-4.48;100.00;100163.41;5050759;28;20045;-50
2022/12/14 06:11:20;;;;;;;13.50;6.43;;;;;;;-4.44;100.00;100152.22;5047326;28;20102;-47
2022/12/14 06:13:59;;;;;;;12.55;6.53;;;;;;;-4.43;100.00;100156.47;5046943;28;20139;-47
2022/12/14 06:16:31;;;;;;;16.35;7.50;;;;;;;-4.46;100.00;100159.06;5050709;28;20049;-48
2022/12/14 06:19:01;;;;;;;14.07;7.25;;;;;;;-4.46;100.00;100161.63;5052242;28;20044;-47
2022/12/14 06:21:31;;;;;;;15.50;7.78;;;;;;;-4.49;100.00;100156.56;5052592;28;20044;-49
2022/12/14 06:24:00;;;;;;;16.58;6.88;;;;;;;-4.49;100.00;100159.97;5050625;28;20549;-48
2022/12/14 06:26:32;;;;;;;15.02;7.00;;;;;;;-4.50;100.00;100157.41;5051615;28;20049;-48
2022/12/14 06:29:00;;;;;;;17.05;6.75;;;;;;;-4.48;100.00;100153.13;5052009;28;20037;-49
2022/12/14 06:31:30;;;;;;;18.33;8.15;;;;;;;-4.46;100.00;100153.94;5049772;28;20079;-50
2022/12/14 06:34:00;;;;;;;14.85;7.70;;;;;;;-4.45;100.00;100159.03;5051981;28;20095;-48
2022/12/14 06:36:30;;;;;;;17.58;7.78;;;;;;;-4.45;100.00;100159.03;5051691;28;20128;-50
2022/12/14 06:39:01;;;;;;;17.85;7.53;;;;;;;-4.47;100.00;100165.94;5051613;28;20045;-48
2022/12/14 06:41:31;;;;;;;14.57;7.05;;;;;;;-4.54;100.00;100163.47;5051313;28;20041;-47
2022/12/14 06:44:05;;;;;;;16.75;7.78;;;;;;;-4.60;100.00;100160.09;5051555;28;20048;-47
2022/12/14 06:46:35;;;;;;;15.25;7.75;;;;;;;-4.65;100.00;100168.75;5050383;28;20045;-47
2022/12/14 06:49:05;;;;;;;16.40;7.43;;;;;;;-4.71;100.00;100174.81;5051934;28;20045;-48
2022/12/14 06:51:39;;;;;;;15.85;7.28;;;;;;;-4.69;100.00;100164.53;5050495;28;20103;-47
2022/12/14 06:54:09;;;;;;;18.08;9.15;;;;;;;-4.65;100.00;100164.47;5051555;28;20045;-47
2022/12/14 06:56:39;;;;;;;15.65;7.30;;;;;;;-4.57;100.00;100168.66;5050031;28;20048;-47
2022/12/14 06:59:08;;;;;;;19.40;9.07;;;;;;;-4.66;100.00;100164.47;5050844;28;20053;-46
2022/12/14 07:01:37;;;;;;;15.82;8.02;;;;;;;-4.69;100.00;100165.38;5049854;28;20365;-47
2022/12/14 07:04:09;;;;;;;18.90;8.50;;;;;;;-4.77;100.00;100157.78;5051177;28;20045;-48
2022/12/14 07:06:39;;;;;;;19.77;8.45;;;;;;;-4.79;100.00;100162.06;5051340;28;20056;-47
2022/12/14 07:09:08;;;;;;;17.02;8.50;;;;;;;-4.83;100.00;100164.72;5050746;28;20045;-48
2022/12/14 07:11:38;;;;;;;18.55;9.02;;;;;;;-4.86;100.00;100177.59;5051173;28;20037;-48
2022/12/14 07:14:06;;;;;;;16.30;8.85;;;;;;;-4.95;100.00;100176.81;5050750;28;20048;-46
2022/12/14 07:16:35;;;;;;;25.45;8.82;;;;;;;-4.95;100.00;100181.97;5049942;28;20136;-47
2022/12/14 07:19:04;;;;;;;18.83;8.77;;;;;;;-4.92;100.00;100181.06;5051236;28;20055;-47
2022/12/14 07:21:32;;;;;;;19.27;9.15;;;;;;;-4.94;100.00;100181.06;5051669;28;20053;-49
2022/12/14 07:24:04;;;;;;;19.05;8.68;;;;;;;-5.03;100.00;100181.19;5049856;28;20056;-47
2022/12/14 07:26:32;;;;;;;19.48;9.13;;;;;;;-5.03;100.00;100177.75;5049866;28;20041;-47
2022/12/14 07:29:01;;;;;;;17.92;8.70;;;;;;;-5.05;100.00;100177.78;5051179;28;20045;-51
2022/12/14 07:31:30;;;;;;;19.83;8.77;;;;;;;-5.13;100.00;100184.72;5049213;28;20045;-49
2022/12/14 07:33:59;;;;;;;16.48;8.05;;;;;;;-5.10;100.00;100184.69;5050667;28;20044;-51
2022/12/14 07:36:31;;;;;;;19.38;9.07;;;;;;;-5.07;100.00;100188.94;5050881;28;20049;-47
2022/12/14 07:39:00;;;;;;;19.80;8.80;;;;;;;-5.06;100.00;100182.94;5050734;28;20056;-46
2022/12/14 07:41:30;;;;;;;18.75;8.57;;;;;;;-5.02;100.00;100184.59;5050367;28;20567;-47
2022/12/14 07:43:59;;;;;;;20.73;8.65;;;;;;;-5.04;100.00;100192.31;5050809;28;20045;-50
2022/12/14 07:46:30;;;;;;;21.13;9.30;;;;;;;-5.04;100.00;100189.75;5049212;28;20124;-47
2022/12/14 07:49:00;;;;;;;19.87;9.70;;;;;;;-5.06;100.00;100190.63;5050962;28;20068;-49
2022/12/14 07:51:30;;;;;;;22.67;10.18;;;;;;;-5.11;100.00;100188.97;5050066;28;20531;-49
2022/12/14 07:53:59;;;;;;;22.13;9.63;;;;;;;-5.07;100.00;100196.63;5050387;28;20057;-47
2022/12/14 07:56:32;;;;;;;22.77;8.80;;;;;;;-5.12;100.00;100187.25;5050781;28;20094;-49
2022/12/14 07:59:03;;;;;;;23.67;9.25;;;;;;;-5.13;100.00;100197.53;5050546;28;20060;-51
2022/12/14 08:01:34;;;;;;;19.10;8.80;;;;;;;-5.14;100.00;100189.00;5050420;28;20048;-53
2022/12/14 08:04:05;;;;;;;21.42;9.48;;;;;;;-5.18;100.00;100192.47;5051027;28;20092;-53
2022/12/14 08:06:35;;;;;;;17.70;8.70;;;;;;;-5.21;100.00;100197.63;5051582;28;20052;-51
2022/12/14 08:09:04;;;;;;;19.40;8.70;;;;;;;-5.24;100.00;100194.25;5051161;28;20145;-54
2022/12/14 08:11:32;;;;;;;17.83;8.82;;;;;;;-5.28;100.00;100196.00;5050962;28;20049;-53
2022/12/14 08:14:02;;;;;;;22.17;8.55;;;;;;;-5.28;100.00;100194.28;5051271;28;20098;-55
2022/12/14 08:16:33;;;;;;;20.23;9.60;;;;;;;-5.28;100.00;100193.44;5050100;28;20087;-54
2022/12/14 08:19:01;;;;;;;19.42;8.77;;;;;;;-5.29;100.00;100186.59;5049871;28;20052;-53
2022/12/14 08:21:30;;;;;;;25.15;9.38;;;;;;;-5.31;100.00;100194.31;5051126;28;20118;-53
2022/12/14 08:23:58;;;;;;;18.60;8.80;;;;;;;-5.28;100.00;100191.72;5051105;28;20049;-54
2022/12/14 08:26:27;;;;;;;29.38;9.90;;;;;;;-5.25;100.00;100195.94;5049104;28;20040;-46
2022/12/14 08:29:03;;;;;;;26.45;10.15;;;;;;;-5.19;100.00;100195.06;5050022;28;20055;-46
2022/12/14 08:31:34;;;;;;;17.75;8.85;;;;;;;-5.22;100.00;100192.50;5048044;28;20710;-50
2022/12/14 08:34:04;;;;;;;20.30;8.77;;;;;;;-5.28;100.00;100199.44;5049929;28;20072;-48
2022/12/14 08:36:33;;;;;;;18.95;7.88;;;;;;;-5.31;100.00;100204.56;5050168;28;20041;-48
2022/12/14 08:39:03;;;;;;;20.90;9.18;;;;;;;-5.39;100.00;100202.94;5048304;28;20053;-46
2022/12/14 08:41:32;;;;;;;18.85;8.75;;;;;;;-5.44;100.00;100198.72;5049324;28;20085;-48
2022/12/14 08:44:02;;;;;;;20.70;8.90;;;;;;;-5.44;100.00;100196.16;5049892;28;20079;-50
2022/12/14 08:46:32;;;;;;;20.98;9.43;;;;;;;-5.44;100.00;100200.41;5048214;28;20130;-47
2022/12/14 08:49:02;;;;;;;21.00;9.10;;;;;;;-5.45;100.00;100199.56;5049972;28;20056;-50
2022/12/14 08:51:30;;;;;;;21.08;9.30;;;;;;;-5.44;100.00;100205.53;5049609;28;20057;-49
2022/12/14 08:53:58;;;;;;;21.63;9.35;;;;;;;-5.32;100.00;100210.53;5049518;28;20110;-46
2022/12/14 08:56:27;;;;;;;19.45;9.13;;;;;;;-5.28;100.00;100217.38;5047235;28;20114;-45
2022/12/14 09:01:58;;;;;;;21.20;9.82;;;;;;;-5.12;100.00;100224.91;5047433;28;20126;-46
2022/12/14 09:04:29;;;;;;;21.08;9.95;;;;;;;-5.03;100.00;100222.25;5049393;28;20060;-47
2022/12/14 09:06:57;;;;;;;19.08;9.20;;;;;;;-4.95;100.00;100222.13;5048883;28;20044;-47
2022/12/14 09:09:25;;;;;;;20.15;9.30;;;;;;;-4.97;100.00;100223.88;5049104;28;20803;-47
2022/12/14 09:11:53;;;;;;;21.25;9.98;;;;;;;-4.83;100.00;100218.59;5048579;28;20072;-47
2022/12/14 09:14:21;;;;;;;21.15;10.20;;;;;;;-4.80;100.00;100224.53;5048899;28;20053;-45
2022/12/14 09:16:50;;;;;;;22.38;10.05;;;;;;;-4.77;100.00;100224.50;5047918;28;20068;-46
2022/12/14 09:19:18;;;;;;;21.42;9.90;;;;;;;-4.68;100.00;100223.53;5048604;28;20057;-46
2022/12/14 09:21:48;;;;;;;19.85;10.27;;;;;;;-4.60;100.00;100213.16;5049266;28;20116;-45
2022/12/14 09:24:16;;;;;;;22.02;10.68;;;;;;;-4.59;100.00;100208.00;5048845;28;20120;-47
2022/12/14 09:26:44;;;;;;;22.20;10.20;;;;;;;-4.56;100.00;100206.28;5048840;28;20045;-47
2022/12/14 09:29:16;;;;;;;22.95;10.32;;;;;;;-4.53;100.00;100201.94;5048435;28;20076;-48
2022/12/14 09:31:44;;;;;;;26.88;11.00;;;;;;;-4.45;100.00;100204.41;5046565;28;20060;-47
2022/12/14 09:34:12;;;;;;;23.23;11.50;;;;;;;-4.37;100.00;100207.72;5048442;28;20052;-49
2022/12/14 09:36:41;;;;;;;21.17;10.93;;;;;;;-4.42;100.00;100212.06;5048831;28;20064;-49
2022/12/14 09:39:13;;;;;;;25.10;10.93;;;;;;;-4.48;100.00;100212.19;5048659;28;20106;-50
2022/12/14 09:41:56;;;;;;;24.42;10.48;;;;;;;-4.45;100.00;100212.97;5048477;28;20053;-50
2022/12/14 09:44:43;;;;;;;22.30;10.93;;;;;;;-4.34;100.00;100211.97;5047727;28;20076;-50
2022/12/14 09:47:15;;;;;;;21.98;10.75;;;;;;;-4.36;100.00;100209.44;5047108;28;20484;-49
2022/12/14 09:49:51;;;;;;;24.98;10.98;;;;;;;-4.33;100.00;100209.38;5050439;28;20441;-48
2022/12/14 09:52:26;;;;;;;20.98;10.45;;;;;;;-4.32;100.00;100203.38;5051995;28;20165;-49
2022/12/14 09:54:58;;;;;;;24.50;11.82;;;;;;;-4.23;100.00;100207.53;5052813;28;20053;-49
2022/12/14 09:57:28;;;;;;;;;;;;;;;-4.22;100.00;100205.84;5053295;28;20075;-48
2022/12/14 09:59:57;;;;;;;20.33;10.25;;;;;;;-4.17;100.00;100204.88;5052395;28;20368;-47
2022/12/14 10:02:38;;;;;;;23.23;10.43;;;;;;;-4.17;100.00;100209.16;5051067;28;20047;-45
2022/12/14 10:05:34;;;;;;;26.48;11.35;;;;;;;-4.20;100.00;100204.06;5052042;28;20060;-45
2022/12/14 10:08:20;;;;;;;24.42;11.07;;;;;;;-4.07;100.00;100190.19;5045211;28;20511;-46
2022/12/14 10:10:58;;;;;;;21.95;10.73;;;;;;;-4.04;100.00;100190.13;5052144;28;20435;-48
2022/12/14 10:13:37;;;;;;;22.77;11.07;;;;;;;-4.05;100.00;100203.84;5051861;28;20045;-49
2022/12/14 10:16:17;;;;;;;19.85;10.07;;;;;;;-3.98;100.00;100200.31;5048794;28;20057;-49
2022/12/14 10:18:56;;;;;;;20.75;10.80;;;;;;;-3.95;100.00;100195.13;5051982;28;20459;-46
2022/12/14 10:21:39;;;;;;;21.00;10.77;;;;;;;-3.92;100.00;100200.22;5052004;28;20128;-48
2022/12/14 10:24:16;;;;;;;22.73;10.88;;;;;;;-3.89;100.00;100191.59;5051935;28;20045;-46
2022/12/14 10:26:50;;;;;;;23.73;11.15;;;;;;;-3.87;100.00;100186.44;5052576;28;21021;-46
2022/12/14 10:29:28;;;;;;;23.90;10.57;;;;;;;-3.84;100.00;100187.25;5051864;28;20068;-46
2022/12/14 10:32:05;;;;;;;21.73;10.88;;;;;;;-3.84;100.00;100182.13;5049088;28;20112;-48
2022/12/14 10:34:40;;;;;;;24.15;10.98;;;;;;;-3.81;100.00;100186.34;5052050;28;20444;-46
2022/12/14 10:37:24;;;;;;;21.42;10.57;;;;;;;-3.78;100.00;100183.72;5051477;28;20049;-46
2022/12/14 10:40:20;;;;;;;22.38;10.93;;;;;;;-3.76;100.00;100189.72;5051678;28;20483;-50
2022/12/14 10:43:13;;;;;;;21.30;9.68;;;;;;;-3.77;100.00;100191.41;5051508;28;20488;-47
2022/12/14 10:46:13;;;;;;;21.38;10.38;;;;;;;-3.74;100.00;100182.81;5050635;28;20120;-47
2022/12/14 10:48:51;;;;;;;21.85;10.45;;;;;;;-3.69;100.00;100182.75;5051606;28;20051;-46
2022/12/14 10:51:25;;;;;;;22.52;10.27;;;;;;;-3.68;100.00;100180.16;5050635;28;20053;-46
2022/12/14 10:53:57;;;;;;;21.40;10.68;;;;;;;-3.66;100.00;100178.38;5051844;28;20045;-47
2022/12/14 10:56:30;;;;;;;20.15;10.52;;;;;;;-3.65;100.00;100166.41;5050938;28;20114;-50
2022/12/14 10:59:25;;;;;;;21.63;9.77;;;;;;;-3.64;100.00;100163.78;5050364;28;20507;-49
2022/12/14 11:01:59;;;;;;;20.15;9.77;;;;;;;-3.64;100.00;100168.94;5049343;28;20044;-49
2022/12/14 11:04:31;;;;;;;21.45;10.07;;;;;;;-3.60;100.00;100165.44;5051226;28;20510;-51
2022/12/14 11:07:02;;;;;;;23.85;11.32;;;;;;;-3.62;100.00;100164.59;5051188;28;20052;-51
2022/12/14 11:09:31;;;;;;;21.05;10.93;;;;;;;-3.62;100.00;100167.16;5051684;28;20064;-51
2022/12/14 11:12:03;;;;;;;21.38;9.85;;;;;;;-3.60;100.00;100168.00;5050010;28;20080;-48
2022/12/14 11:14:33;;;;;;;20.83;10.27;;;;;;;-3.58;100.00;100163.66;5051077;28;20166;-46
2022/12/14 11:17:01;;;;;;;19.60;9.95;;;;;;;-3.58;100.00;100161.09;5049344;28;20048;-46
2022/12/14 11:19:30;;;;;;;21.08;10.02;;;;;;;-3.57;100.00;100170.50;5051225;28;20075;-46
2022/12/14 11:22:12;;;;;;;21.52;9.57;;;;;;;-3.46;100.00;100166.91;5050399;28;20096;-46
2022/12/14 11:24:48;;;;;;;21.42;10.32;;;;;;;-3.48;100.00;100160.94;5051197;28;20044;-46
2022/12/14 11:27:19;;;;;;;20.85;10.02;;;;;;;-3.36;100.00;100160.72;5050505;28;20101;-46
2022/12/14 11:29:51;;;;;;;21.20;9.65;;;;;;;-3.41;100.00;100154.81;5051133;28;20057;-47
2022/12/14 11:32:24;;;;;;;20.60;10.25;;;;;;;-3.39;100.00;100158.22;5048793;28;20087;-47
2022/12/14 11:34:57;;;;;;;21.02;10.23;;;;;;;-3.45;100.00;100155.72;5050602;28;20048;-47
2022/12/14 11:37:27;;;;;;;22.02;10.65;;;;;;;-3.43;100.00;100162.53;5050234;28;20056;-46
2022/12/14 11:39:58;;;;;;;20.83;10.18;;;;;;;-3.45;100.00;100160.88;5050744;28;20049;-48
2022/12/14 11:42:28;;;;;;;17.70;9.75;;;;;;;-3.38;100.00;100154.75;5050173;28;20424;-47
2022/12/14 11:45:30;;;;;;;19.10;9.57;;;;;;;-3.34;100.00;100158.97;5049800;28;20072;-51
2022/12/14 11:48:20;;;;;;;23.55;9.07;;;;;;;-3.39;100.00;100158.22;5048965;28;20041;-50
2022/12/14 11:50:50;;;;;;;21.17;10.05;;;;;;;-3.35;100.00;100158.97;5050382;28;20411;-50
2022/12/14 11:53:19;;;;;;;20.05;9.75;;;;;;;-3.34;100.00;100161.53;5050145;28;20045;-49